sensor_id;sensor_type;location;lat;lon;timestamp;P1;durP1;ratioP1;P2;durP2;ratioP2
42338;SDS011;27993;45.392;10.918;2023-11-22T00:03:17;13.38;;;5.72;;
42338;SDS011;27993;45.392;10.918;2023-11-22T00:05:49;8.68;;;4.70;;
42338;SDS011;27993;45.392;10.918;2023-11-22T00:08:20;6.72;;;4.45;;
42338;SDS011;27993;45.392;10.918;2023-11-22T00:10:51;9.03;;;5.17;;
42338;SDS011;27993;45.392;10.918;2023-11-22T00:13:22;8.20;;;4.97;;
42338;SDS011;27993;45.392;10.918;2023-11-22T00:15:53;8.25;;;5.03;;
42338;SDS011;27993;45.392;10.918;2023-11-22T00:18:24;7.90;;;4.40;;
42338;SDS011;27993;45.392;10.918;2023-11-22T00:20:56;8.63;;;5.00;;
42338;SDS011;27993;45.392;10.918;2023-11-22T00:23:29;11.50;;;4.90;;
42338;SDS011;27993;45.392;10.918;2023-11-22T00:26:00;9.87;;;4.50;;
42338;SDS011;27993;45.392;10.918;2023-11-22T00:28:31;10.83;;;5.27;;
42338;SDS011;27993;45.392;10.918;2023-11-22T00:31:02;8.32;;;4.82;;
42338;SDS011;27993;45.392;10.918;2023-11-22T00:33:33;7.77;;;4.60;;
42338;SDS011;27993;45.392;10.918;2023-11-22T00:36:05;6.75;;;4.85;;
42338;SDS011;27993;45.392;10.918;2023-11-22T00:38:38;9.48;;;5.37;;
42338;SDS011;27993;45.392;10.918;2023-11-22T00:41:09;11.48;;;4.82;;
42338;SDS011;27993;45.392;10.918;2023-11-22T00:43:41;8.38;;;5.40;;
42338;SDS011;27993;45.392;10.918;2023-11-22T00:46:12;10.00;;;4.70;;
42338;SDS011;27993;45.392;10.918;2023-11-22T00:48:43;7.40;;;5.00;;
42338;SDS011;27993;45.392;10.918;2023-11-22T00:51:14;16.17;;;5.45;;
42338;SDS011;27993;45.392;10.918;2023-11-22T00:53:45;8.27;;;4.95;;
42338;SDS011;27993;45.392;10.918;2023-11-22T00:56:16;7.87;;;4.43;;
42338;SDS011;27993;45.392;10.918;2023-11-22T00:58:47;10.37;;;5.30;;
42338;SDS011;27993;45.392;10.918;2023-11-22T01:01:20;10.35;;;5.12;;
42338;SDS011;27993;45.392;10.918;2023-11-22T01:03:51;8.48;;;4.47;;
42338;SDS011;27993;45.392;10.918;2023-11-22T01:06:22;8.90;;;4.47;;
42338;SDS011;27993;45.392;10.918;2023-11-22T01:08:53;7.47;;;4.57;;
42338;SDS011;27993;45.392;10.918;2023-11-22T01:11:24;17.20;;;5.40;;
42338;SDS011;27993;45.392;10.918;2023-11-22T01:13:55;8.13;;;4.17;;
42338;SDS011;27993;45.392;10.918;2023-11-22T01:16:26;8.90;;;4.57;;
42338;SDS011;27993;45.392;10.918;2023-11-22T01:18:57;6.83;;;4.10;;
42338;SDS011;27993;45.392;10.918;2023-11-22T01:21:28;7.00;;;4.25;;
42338;SDS011;27993;45.392;10.918;2023-11-22T01:23:59;14.50;;;5.10;;
42338;SDS011;27993;45.392;10.918;2023-11-22T01:26:31;10.27;;;5.70;;
42338;SDS011;27993;45.392;10.918;2023-11-22T01:29:02;12.23;;;5.40;;
42338;SDS011;27993;45.392;10.918;2023-11-22T01:31:34;10.57;;;6.03;;
42338;SDS011;27993;45.392;10.918;2023-11-22T01:34:05;8.90;;;5.05;;
42338;SDS011;27993;45.392;10.918;2023-11-22T01:36:39;11.50;;;4.90;;
42338;SDS011;27993;45.392;10.918;2023-11-22T01:39:12;8.48;;;5.68;;
42338;SDS011;27993;45.392;10.918;2023-11-22T01:41:44;11.20;;;5.47;;
42338;SDS011;27993;45.392;10.918;2023-11-22T01:44:15;6.78;;;4.45;;
42338;SDS011;27993;45.392;10.918;2023-11-22T01:46:48;12.23;;;5.15;;
42338;SDS011;27993;45.392;10.918;2023-11-22T01:49:19;5.47;;;3.77;;
42338;SDS011;27993;45.392;10.918;2023-11-22T01:51:50;16.52;;;4.85;;
42338;SDS011;27993;45.392;10.918;2023-11-22T01:54:21;7.97;;;4.30;;
42338;SDS011;27993;45.392;10.918;2023-11-22T01:59:24;9.23;;;3.70;;
42338;SDS011;27993;45.392;10.918;2023-11-22T02:01:56;9.63;;;4.68;;
42338;SDS011;27993;45.392;10.918;2023-11-22T02:04:27;10.30;;;4.90;;
42338;SDS011;27993;45.392;10.918;2023-11-22T02:06:58;10.70;;;5.30;;
42338;SDS011;27993;45.392;10.918;2023-11-22T02:09:29;9.93;;;5.10;;
42338;SDS011;27993;45.392;10.918;2023-11-22T02:12:00;7.93;;;4.77;;
42338;SDS011;27993;45.392;10.918;2023-11-22T02:14:31;17.90;;;5.43;;
42338;SDS011;27993;45.392;10.918;2023-11-22T02:17:02;9.50;;;5.17;;
42338;SDS011;27993;45.392;10.918;2023-11-22T02:19:33;9.73;;;5.13;;
42338;SDS011;27993;45.392;10.918;2023-11-22T02:22:04;6.30;;;4.03;;
42338;SDS011;27993;45.392;10.918;2023-11-22T02:24:35;7.70;;;4.80;;
42338;SDS011;27993;45.392;10.918;2023-11-22T02:27:06;12.18;;;5.75;;
42338;SDS011;27993;45.392;10.918;2023-11-22T02:29:37;14.30;;;4.50;;
42338;SDS011;27993;45.392;10.918;2023-11-22T02:32:08;12.17;;;4.90;;
42338;SDS011;27993;45.392;10.918;2023-11-22T02:34:39;15.70;;;4.37;;
42338;SDS011;27993;45.392;10.918;2023-11-22T02:37:10;9.20;;;4.82;;
42338;SDS011;27993;45.392;10.918;2023-11-22T02:42:32;5.62;;;3.90;;
42338;SDS011;27993;45.392;10.918;2023-11-22T02:45:03;8.90;;;5.25;;
42338;SDS011;27993;45.392;10.918;2023-11-22T02:47:35;9.38;;;4.95;;
42338;SDS011;27993;45.392;10.918;2023-11-22T02:50:06;9.07;;;4.75;;
42338;SDS011;27993;45.392;10.918;2023-11-22T02:52:38;9.60;;;5.32;;
42338;SDS011;27993;45.392;10.918;2023-11-22T02:55:09;9.53;;;4.70;;
42338;SDS011;27993;45.392;10.918;2023-11-22T02:57:40;13.38;;;5.43;;
42338;SDS011;27993;45.392;10.918;2023-11-22T03:00:11;8.53;;;4.50;;
42338;SDS011;27993;45.392;10.918;2023-11-22T03:02:45;18.25;;;5.80;;
42338;SDS011;27993;45.392;10.918;2023-11-22T03:05:16;9.32;;;5.18;;
42338;SDS011;27993;45.392;10.918;2023-11-22T03:10:21;6.75;;;4.68;;
42338;SDS011;27993;45.392;10.918;2023-11-22T03:12:52;10.87;;;4.43;;
42338;SDS011;27993;45.392;10.918;2023-11-22T03:17:55;12.50;;;5.03;;
42338;SDS011;27993;45.392;10.918;2023-11-22T03:20:27;7.47;;;3.93;;
42338;SDS011;27993;45.392;10.918;2023-11-22T03:22:58;5.97;;;4.20;;
42338;SDS011;27993;45.392;10.918;2023-11-22T03:28:00;5.93;;;4.10;;
42338;SDS011;27993;45.392;10.918;2023-11-22T03:30:31;6.57;;;3.40;;
42338;SDS011;27993;45.392;10.918;2023-11-22T03:33:02;11.45;;;4.25;;
42338;SDS011;27993;45.392;10.918;2023-11-22T03:35:34;7.82;;;4.70;;
42338;SDS011;27993;45.392;10.918;2023-11-22T03:38:05;7.43;;;4.53;;
42338;SDS011;27993;45.392;10.918;2023-11-22T03:40:36;18.60;;;4.90;;
42338;SDS011;27993;45.392;10.918;2023-11-22T03:43:07;5.70;;;3.72;;
42338;SDS011;27993;45.392;10.918;2023-11-22T03:45:40;5.28;;;3.42;;
42338;SDS011;27993;45.392;10.918;2023-11-22T03:48:11;5.30;;;4.20;;
42338;SDS011;27993;45.392;10.918;2023-11-22T03:50:42;12.55;;;5.03;;
42338;SDS011;27993;45.392;10.918;2023-11-22T03:53:13;7.47;;;4.23;;
42338;SDS011;27993;45.392;10.918;2023-11-22T03:55:44;4.80;;;3.40;;
42338;SDS011;27993;45.392;10.918;2023-11-22T03:58:15;10.50;;;4.93;;
42338;SDS011;27993;45.392;10.918;2023-11-22T04:00:46;7.83;;;4.17;;
42338;SDS011;27993;45.392;10.918;2023-11-22T04:03:17;7.00;;;4.47;;
42338;SDS011;27993;45.392;10.918;2023-11-22T04:05:48;7.93;;;3.83;;
42338;SDS011;27993;45.392;10.918;2023-11-22T04:08:19;5.43;;;3.62;;
42338;SDS011;27993;45.392;10.918;2023-11-22T04:10:50;6.80;;;3.67;;
42338;SDS011;27993;45.392;10.918;2023-11-22T04:13:22;5.60;;;3.75;;
42338;SDS011;27993;45.392;10.918;2023-11-22T04:15:54;7.22;;;4.72;;
42338;SDS011;27993;45.392;10.918;2023-11-22T04:18:25;8.23;;;5.27;;
42338;SDS011;27993;45.392;10.918;2023-11-22T04:20:57;7.35;;;4.37;;
42338;SDS011;27993;45.392;10.918;2023-11-22T04:23:31;10.15;;;4.47;;
42338;SDS011;27993;45.392;10.918;2023-11-22T04:26:02;8.43;;;4.47;;
42338;SDS011;27993;45.392;10.918;2023-11-22T04:28:34;5.30;;;3.92;;
42338;SDS011;27993;45.392;10.918;2023-11-22T04:31:05;6.53;;;4.03;;
42338;SDS011;27993;45.392;10.918;2023-11-22T04:33:38;8.57;;;4.28;;
42338;SDS011;27993;45.392;10.918;2023-11-22T04:36:09;5.17;;;3.07;;
42338;SDS011;27993;45.392;10.918;2023-11-22T04:38:42;9.88;;;3.92;;
42338;SDS011;27993;45.392;10.918;2023-11-22T04:41:13;6.97;;;4.10;;
42338;SDS011;27993;45.392;10.918;2023-11-22T04:43:44;6.82;;;3.67;;
42338;SDS011;27993;45.392;10.918;2023-11-22T04:46:15;7.53;;;4.23;;
42338;SDS011;27993;45.392;10.918;2023-11-22T04:48:46;13.17;;;4.93;;
42338;SDS011;27993;45.392;10.918;2023-11-22T04:51:21;7.53;;;3.45;;
42338;SDS011;27993;45.392;10.918;2023-11-22T04:53:52;7.03;;;4.20;;
42338;SDS011;27993;45.392;10.918;2023-11-22T04:56:22;13.60;;;4.78;;
42338;SDS011;27993;45.392;10.918;2023-11-22T04:58:53;7.85;;;4.15;;
42338;SDS011;27993;45.392;10.918;2023-11-22T05:01:24;8.97;;;4.77;;
42338;SDS011;27993;45.392;10.918;2023-11-22T05:04:01;7.85;;;4.50;;
42338;SDS011;27993;45.392;10.918;2023-11-22T05:06:32;4.77;;;3.17;;
42338;SDS011;27993;45.392;10.918;2023-11-22T05:09:03;9.40;;;3.97;;
42338;SDS011;27993;45.392;10.918;2023-11-22T05:11:35;7.70;;;3.95;;
42338;SDS011;27993;45.392;10.918;2023-11-22T05:14:07;7.47;;;4.20;;
42338;SDS011;27993;45.392;10.918;2023-11-22T05:16:38;7.03;;;4.28;;
42338;SDS011;27993;45.392;10.918;2023-11-22T05:19:09;5.53;;;4.23;;
42338;SDS011;27993;45.392;10.918;2023-11-22T05:21:40;7.93;;;4.10;;
42338;SDS011;27993;45.392;10.918;2023-11-22T05:24:11;6.93;;;3.57;;
42338;SDS011;27993;45.392;10.918;2023-11-22T05:26:42;7.57;;;4.03;;
42338;SDS011;27993;45.392;10.918;2023-11-22T05:29:13;6.30;;;3.75;;
42338;SDS011;27993;45.392;10.918;2023-11-22T05:31:44;6.22;;;3.90;;
42338;SDS011;27993;45.392;10.918;2023-11-22T05:34:15;12.03;;;4.03;;
42338;SDS011;27993;45.392;10.918;2023-11-22T05:36:46;8.32;;;4.95;;
42338;SDS011;27993;45.392;10.918;2023-11-22T05:39:18;14.82;;;3.90;;
42338;SDS011;27993;45.392;10.918;2023-11-22T05:41:53;7.20;;;4.77;;
42338;SDS011;27993;45.392;10.918;2023-11-22T05:44:24;8.85;;;4.00;;
42338;SDS011;27993;45.392;10.918;2023-11-22T05:46:55;6.82;;;4.12;;
42338;SDS011;27993;45.392;10.918;2023-11-22T05:49:27;17.00;;;4.97;;
42338;SDS011;27993;45.392;10.918;2023-11-22T05:51:58;7.97;;;4.30;;
42338;SDS011;27993;45.392;10.918;2023-11-22T05:54:29;13.32;;;4.47;;
42338;SDS011;27993;45.392;10.918;2023-11-22T05:57:01;8.57;;;3.87;;
42338;SDS011;27993;45.392;10.918;2023-11-22T05:59:32;13.53;;;4.73;;
42338;SDS011;27993;45.392;10.918;2023-11-22T06:02:04;7.37;;;4.27;;
42338;SDS011;27993;45.392;10.918;2023-11-22T06:04:35;6.55;;;4.65;;
42338;SDS011;27993;45.392;10.918;2023-11-22T06:07:06;7.87;;;4.70;;
42338;SDS011;27993;45.392;10.918;2023-11-22T06:09:37;9.27;;;4.57;;
42338;SDS011;27993;45.392;10.918;2023-11-22T06:12:08;7.80;;;4.20;;
42338;SDS011;27993;45.392;10.918;2023-11-22T06:14:39;8.35;;;3.92;;
42338;SDS011;27993;45.392;10.918;2023-11-22T06:17:10;7.53;;;4.40;;
42338;SDS011;27993;45.392;10.918;2023-11-22T06:19:41;6.87;;;3.97;;
42338;SDS011;27993;45.392;10.918;2023-11-22T06:22:11;6.43;;;3.60;;
42338;SDS011;27993;45.392;10.918;2023-11-22T06:24:43;8.53;;;4.27;;
42338;SDS011;27993;45.392;10.918;2023-11-22T06:27:14;6.70;;;3.97;;
42338;SDS011;27993;45.392;10.918;2023-11-22T06:29:45;10.25;;;4.53;;
42338;SDS011;27993;45.392;10.918;2023-11-22T06:32:16;8.18;;;4.05;;
42338;SDS011;27993;45.392;10.918;2023-11-22T06:34:48;4.82;;;3.95;;
42338;SDS011;27993;45.392;10.918;2023-11-22T06:37:19;5.35;;;3.75;;
42338;SDS011;27993;45.392;10.918;2023-11-22T06:39:50;8.70;;;3.72;;
42338;SDS011;27993;45.392;10.918;2023-11-22T06:42:21;8.23;;;4.28;;
42338;SDS011;27993;45.392;10.918;2023-11-22T06:44:53;5.33;;;3.60;;
42338;SDS011;27993;45.392;10.918;2023-11-22T06:47:28;6.55;;;3.97;;
42338;SDS011;27993;45.392;10.918;2023-11-22T06:49:59;5.63;;;3.50;;
42338;SDS011;27993;45.392;10.918;2023-11-22T06:52:30;5.43;;;3.27;;
42338;SDS011;27993;45.392;10.918;2023-11-22T06:55:01;11.53;;;2.97;;
42338;SDS011;27993;45.392;10.918;2023-11-22T06:57:33;6.60;;;3.58;;
42338;SDS011;27993;45.392;10.918;2023-11-22T07:00:04;6.82;;;3.58;;
42338;SDS011;27993;45.392;10.918;2023-11-22T07:02:36;5.65;;;3.08;;
42338;SDS011;27993;45.392;10.918;2023-11-22T07:05:07;8.65;;;3.70;;
42338;SDS011;27993;45.392;10.918;2023-11-22T07:07:39;9.85;;;3.62;;
42338;SDS011;27993;45.392;10.918;2023-11-22T07:10:10;9.10;;;4.03;;
42338;SDS011;27993;45.392;10.918;2023-11-22T07:12:41;7.77;;;3.73;;
42338;SDS011;27993;45.392;10.918;2023-11-22T07:15:13;7.85;;;3.90;;
42338;SDS011;27993;45.392;10.918;2023-11-22T07:17:44;5.37;;;3.25;;
42338;SDS011;27993;45.392;10.918;2023-11-22T07:20:15;10.10;;;4.10;;
42338;SDS011;27993;45.392;10.918;2023-11-22T07:22:47;6.22;;;3.42;;
42338;SDS011;27993;45.392;10.918;2023-11-22T07:25:24;6.22;;;4.43;;
42338;SDS011;27993;45.392;10.918;2023-11-22T07:27:56;11.43;;;4.97;;
42338;SDS011;27993;45.392;10.918;2023-11-22T07:30:29;8.23;;;4.53;;
42338;SDS011;27993;45.392;10.918;2023-11-22T07:33:02;9.85;;;4.28;;
42338;SDS011;27993;45.392;10.918;2023-11-22T07:35:34;13.00;;;4.25;;
42338;SDS011;27993;45.392;10.918;2023-11-22T07:38:05;9.65;;;4.70;;
42338;SDS011;27993;45.392;10.918;2023-11-22T07:40:38;9.68;;;4.45;;
42338;SDS011;27993;45.392;10.918;2023-11-22T07:45:40;8.02;;;3.65;;
42338;SDS011;27993;45.392;10.918;2023-11-22T07:48:13;8.70;;;5.15;;
42338;SDS011;27993;45.392;10.918;2023-11-22T07:50:44;11.95;;;4.55;;
42338;SDS011;27993;45.392;10.918;2023-11-22T07:53:18;11.15;;;4.20;;
42338;SDS011;27993;45.392;10.918;2023-11-22T07:55:49;10.13;;;5.05;;
42338;SDS011;27993;45.392;10.918;2023-11-22T07:58:21;18.37;;;5.57;;
42338;SDS011;27993;45.392;10.918;2023-11-22T08:00:52;7.80;;;4.78;;
42338;SDS011;27993;45.392;10.918;2023-11-22T08:03:25;9.00;;;4.50;;
42338;SDS011;27993;45.392;10.918;2023-11-22T08:05:56;8.52;;;4.80;;
42338;SDS011;27993;45.392;10.918;2023-11-22T08:08:27;8.43;;;3.80;;
42338;SDS011;27993;45.392;10.918;2023-11-22T08:10:59;8.63;;;4.62;;
42338;SDS011;27993;45.392;10.918;2023-11-22T08:13:31;12.73;;;5.78;;
42338;SDS011;27993;45.392;10.918;2023-11-22T08:16:03;20.48;;;5.45;;
42338;SDS011;27993;45.392;10.918;2023-11-22T08:18:34;16.50;;;5.15;;
42338;SDS011;27993;45.392;10.918;2023-11-22T08:21:05;13.35;;;4.95;;
42338;SDS011;27993;45.392;10.918;2023-11-22T08:23:37;15.82;;;4.65;;
42338;SDS011;27993;45.392;10.918;2023-11-22T08:26:08;9.27;;;4.93;;
42338;SDS011;27993;45.392;10.918;2023-11-22T08:28:39;11.68;;;4.50;;
42338;SDS011;27993;45.392;10.918;2023-11-22T08:31:10;9.32;;;4.12;;
42338;SDS011;27993;45.392;10.918;2023-11-22T08:33:41;11.32;;;4.80;;
42338;SDS011;27993;45.392;10.918;2023-11-22T08:36:12;6.90;;;4.72;;
42338;SDS011;27993;45.392;10.918;2023-11-22T08:38:43;6.72;;;4.25;;
42338;SDS011;27993;45.392;10.918;2023-11-22T08:41:14;8.80;;;4.75;;
42338;SDS011;27993;45.392;10.918;2023-11-22T08:43:47;8.93;;;4.45;;
42338;SDS011;27993;45.392;10.918;2023-11-22T08:46:18;9.20;;;4.05;;
42338;SDS011;27993;45.392;10.918;2023-11-22T08:48:53;14.75;;;4.75;;
42338;SDS011;27993;45.392;10.918;2023-11-22T08:51:26;5.78;;;4.15;;
42338;SDS011;27993;45.392;10.918;2023-11-22T08:53:57;11.45;;;5.05;;
42338;SDS011;27993;45.392;10.918;2023-11-22T08:56:29;8.23;;;4.80;;
42338;SDS011;27993;45.392;10.918;2023-11-22T08:59:00;12.35;;;5.72;;
42338;SDS011;27993;45.392;10.918;2023-11-22T09:01:31;10.05;;;4.93;;
42338;SDS011;27993;45.392;10.918;2023-11-22T09:04:02;13.98;;;4.72;;
42338;SDS011;27993;45.392;10.918;2023-11-22T09:06:33;8.70;;;4.57;;
42338;SDS011;27993;45.392;10.918;2023-11-22T09:09:04;5.60;;;4.32;;
42338;SDS011;27993;45.392;10.918;2023-11-22T09:11:35;10.77;;;5.00;;
42338;SDS011;27993;45.392;10.918;2023-11-22T09:14:07;13.00;;;5.78;;
42338;SDS011;27993;45.392;10.918;2023-11-22T09:16:40;9.07;;;4.43;;
42338;SDS011;27993;45.392;10.918;2023-11-22T09:19:11;9.18;;;4.68;;
42338;SDS011;27993;45.392;10.918;2023-11-22T09:24:13;6.45;;;3.95;;
42338;SDS011;27993;45.392;10.918;2023-11-22T09:26:45;8.07;;;3.75;;
42338;SDS011;27993;45.392;10.918;2023-11-22T09:29:16;12.37;;;3.45;;
42338;SDS011;27993;45.392;10.918;2023-11-22T09:31:48;6.07;;;3.45;;
42338;SDS011;27993;45.392;10.918;2023-11-22T09:34:22;12.30;;;4.45;;
42338;SDS011;27993;45.392;10.918;2023-11-22T09:36:53;8.23;;;3.30;;
42338;SDS011;27993;45.392;10.918;2023-11-22T09:39:24;8.02;;;3.87;;
42338;SDS011;27993;45.392;10.918;2023-11-22T09:41:55;7.65;;;3.30;;
42338;SDS011;27993;45.392;10.918;2023-11-22T09:44:26;6.62;;;3.78;;
42338;SDS011;27993;45.392;10.918;2023-11-22T09:46:57;9.73;;;3.37;;
42338;SDS011;27993;45.392;10.918;2023-11-22T09:49:29;5.68;;;3.33;;
42338;SDS011;27993;45.392;10.918;2023-11-22T09:52:01;5.30;;;3.05;;
42338;SDS011;27993;45.392;10.918;2023-11-22T09:54:35;6.82;;;3.53;;
42338;SDS011;27993;45.392;10.918;2023-11-22T09:57:07;7.28;;;3.20;;
42338;SDS011;27993;45.392;10.918;2023-11-22T09:59:40;6.78;;;2.87;;
42338;SDS011;27993;45.392;10.918;2023-11-22T10:02:12;6.32;;;3.00;;
42338;SDS011;27993;45.392;10.918;2023-11-22T10:04:43;8.05;;;3.45;;
42338;SDS011;27993;45.392;10.918;2023-11-22T10:07:15;6.95;;;3.67;;
42338;SDS011;27993;45.392;10.918;2023-11-22T10:09:47;4.80;;;2.83;;
42338;SDS011;27993;45.392;10.918;2023-11-22T10:12:19;4.97;;;2.12;;
42338;SDS011;27993;45.392;10.918;2023-11-22T10:14:53;5.10;;;2.08;;
42338;SDS011;27993;45.392;10.918;2023-11-22T10:17:24;5.03;;;2.03;;
42338;SDS011;27993;45.392;10.918;2023-11-22T10:19:56;6.80;;;2.17;;
42338;SDS011;27993;45.392;10.918;2023-11-22T10:22:27;1.87;;;1.17;;
42338;SDS011;27993;45.392;10.918;2023-11-22T10:24:58;3.58;;;1.50;;
42338;SDS011;27993;45.392;10.918;2023-11-22T10:27:31;2.42;;;1.12;;
42338;SDS011;27993;45.392;10.918;2023-11-22T10:30:02;2.15;;;1.37;;
42338;SDS011;27993;45.392;10.918;2023-11-22T10:32:33;2.20;;;1.20;;
42338;SDS011;27993;45.392;10.918;2023-11-22T10:35:05;3.00;;;1.52;;
42338;SDS011;27993;45.392;10.918;2023-11-22T10:37:38;2.25;;;1.12;;
42338;SDS011;27993;45.392;10.918;2023-11-22T10:40:10;2.12;;;1.60;;
42338;SDS011;27993;45.392;10.918;2023-11-22T10:42:43;3.33;;;1.55;;
42338;SDS011;27993;45.392;10.918;2023-11-22T10:45:14;3.03;;;1.70;;
42338;SDS011;27993;45.392;10.918;2023-11-22T10:47:46;2.72;;;1.50;;
42338;SDS011;27993;45.392;10.918;2023-11-22T10:52:48;1.98;;;1.52;;
42338;SDS011;27993;45.392;10.918;2023-11-22T10:55:31;2.75;;;1.60;;
42338;SDS011;27993;45.392;10.918;2023-11-22T10:58:03;2.08;;;1.60;;
42338;SDS011;27993;45.392;10.918;2023-11-22T11:00:34;5.35;;;1.37;;
42338;SDS011;27993;45.392;10.918;2023-11-22T11:03:17;2.15;;;1.60;;
42338;SDS011;27993;45.392;10.918;2023-11-22T11:05:57;0.90;;;0.75;;
42338;SDS011;27993;45.392;10.918;2023-11-22T11:08:28;2.20;;;1.27;;
42338;SDS011;27993;45.392;10.918;2023-11-22T11:10:59;1.95;;;1.10;;
42338;SDS011;27993;45.392;10.918;2023-11-22T11:13:33;1.60;;;1.00;;
42338;SDS011;27993;45.392;10.918;2023-11-22T11:16:04;1.40;;;1.17;;
42338;SDS011;27993;45.392;10.918;2023-11-22T11:18:36;4.00;;;2.40;;
42338;SDS011;27993;45.392;10.918;2023-11-22T11:23:41;1.50;;;1.05;;
42338;SDS011;27993;45.392;10.918;2023-11-22T11:26:15;2.40;;;1.42;;
42338;SDS011;27993;45.392;10.918;2023-11-22T11:28:51;1.80;;;1.23;;
42338;SDS011;27993;45.392;10.918;2023-11-22T11:31:22;8.10;;;1.70;;
42338;SDS011;27993;45.392;10.918;2023-11-22T11:33:54;2.95;;;1.45;;
42338;SDS011;27993;45.392;10.918;2023-11-22T11:36:26;2.60;;;1.80;;
42338;SDS011;27993;45.392;10.918;2023-11-22T11:39:00;3.05;;;1.70;;
42338;SDS011;27993;45.392;10.918;2023-11-22T11:41:31;2.55;;;1.58;;
42338;SDS011;27993;45.392;10.918;2023-11-22T11:44:03;2.15;;;1.33;;
42338;SDS011;27993;45.392;10.918;2023-11-22T11:46:36;3.55;;;1.58;;
42338;SDS011;27993;45.392;10.918;2023-11-22T11:49:07;2.60;;;1.37;;
42338;SDS011;27993;45.392;10.918;2023-11-22T11:51:39;2.72;;;1.45;;
42338;SDS011;27993;45.392;10.918;2023-11-22T11:54:12;2.12;;;1.37;;
42338;SDS011;27993;45.392;10.918;2023-11-22T11:56:43;7.97;;;1.45;;
42338;SDS011;27993;45.392;10.918;2023-11-22T11:59:14;4.20;;;2.03;;
42338;SDS011;27993;45.392;10.918;2023-11-22T12:01:45;2.55;;;1.37;;
42338;SDS011;27993;45.392;10.918;2023-11-22T12:04:16;2.08;;;1.52;;
42338;SDS011;27993;45.392;10.918;2023-11-22T12:06:47;1.75;;;1.27;;
42338;SDS011;27993;45.392;10.918;2023-11-22T12:09:22;2.08;;;1.08;;
42338;SDS011;27993;45.392;10.918;2023-11-22T12:11:54;1.55;;;1.00;;
42338;SDS011;27993;45.392;10.918;2023-11-22T12:14:25;2.17;;;1.30;;
42338;SDS011;27993;45.392;10.918;2023-11-22T12:16:57;3.28;;;1.67;;
42338;SDS011;27993;45.392;10.918;2023-11-22T12:19:29;3.10;;;1.70;;
42338;SDS011;27993;45.392;10.918;2023-11-22T12:22:01;3.03;;;2.12;;
42338;SDS011;27993;45.392;10.918;2023-11-22T12:24:32;4.80;;;1.77;;
42338;SDS011;27993;45.392;10.918;2023-11-22T12:27:03;13.77;;;3.37;;
42338;SDS011;27993;45.392;10.918;2023-11-22T12:29:40;7.82;;;3.90;;
42338;SDS011;27993;45.392;10.918;2023-11-22T12:32:11;3.22;;;1.87;;
42338;SDS011;27993;45.392;10.918;2023-11-22T12:34:43;3.78;;;1.70;;
42338;SDS011;27993;45.392;10.918;2023-11-22T12:39:45;3.90;;;1.33;;
42338;SDS011;27993;45.392;10.918;2023-11-22T12:42:18;4.15;;;1.73;;
42338;SDS011;27993;45.392;10.918;2023-11-22T12:44:50;1.77;;;1.23;;
42338;SDS011;27993;45.392;10.918;2023-11-22T12:47:31;2.70;;;1.80;;
42338;SDS011;27993;45.392;10.918;2023-11-22T12:50:05;3.27;;;1.97;;
42338;SDS011;27993;45.392;10.918;2023-11-22T12:52:40;2.15;;;1.50;;
42338;SDS011;27993;45.392;10.918;2023-11-22T12:55:11;15.07;;;1.77;;
42338;SDS011;27993;45.392;10.918;2023-11-22T12:57:42;3.30;;;1.67;;
42338;SDS011;27993;45.392;10.918;2023-11-22T13:00:14;5.22;;;1.98;;
42338;SDS011;27993;45.392;10.918;2023-11-22T13:02:45;1.90;;;1.23;;
42338;SDS011;27993;45.392;10.918;2023-11-22T13:05:16;3.85;;;1.77;;
42338;SDS011;27993;45.392;10.918;2023-11-22T13:07:49;2.08;;;1.37;;
42338;SDS011;27993;45.392;10.918;2023-11-22T13:10:20;3.80;;;1.50;;
42338;SDS011;27993;45.392;10.918;2023-11-22T13:12:56;5.50;;;1.50;;
42338;SDS011;27993;45.392;10.918;2023-11-22T13:15:27;2.37;;;1.33;;
42338;SDS011;27993;45.392;10.918;2023-11-22T13:18:00;2.28;;;1.48;;
42338;SDS011;27993;45.392;10.918;2023-11-22T13:23:02;3.87;;;1.47;;
42338;SDS011;27993;45.392;10.918;2023-11-22T13:25:33;2.78;;;1.95;;
42338;SDS011;27993;45.392;10.918;2023-11-22T13:28:04;3.58;;;1.12;;
42338;SDS011;27993;45.392;10.918;2023-11-22T13:30:36;2.37;;;1.40;;
42338;SDS011;27993;45.392;10.918;2023-11-22T13:33:07;3.03;;;1.50;;
42338;SDS011;27993;45.392;10.918;2023-11-22T13:35:38;3.87;;;1.70;;
42338;SDS011;27993;45.392;10.918;2023-11-22T13:38:09;2.30;;;1.33;;
42338;SDS011;27993;45.392;10.918;2023-11-22T13:40:43;2.47;;;1.20;;
42338;SDS011;27993;45.392;10.918;2023-11-22T13:43:16;3.35;;;1.60;;
42338;SDS011;27993;45.392;10.918;2023-11-22T13:45:48;1.80;;;1.20;;
42338;SDS011;27993;45.392;10.918;2023-11-22T13:48:20;2.58;;;1.55;;
42338;SDS011;27993;45.392;10.918;2023-11-22T13:50:53;1.70;;;1.15;;
42338;SDS011;27993;45.392;10.918;2023-11-22T13:53:24;1.83;;;1.25;;
42338;SDS011;27993;45.392;10.918;2023-11-22T13:55:56;2.12;;;1.30;;
42338;SDS011;27993;45.392;10.918;2023-11-22T14:00:59;2.77;;;1.67;;
42338;SDS011;27993;45.392;10.918;2023-11-22T14:03:30;2.33;;;1.23;;
42338;SDS011;27993;45.392;10.918;2023-11-22T14:06:01;2.50;;;1.55;;
42338;SDS011;27993;45.392;10.918;2023-11-22T14:08:34;3.00;;;1.75;;
42338;SDS011;27993;45.392;10.918;2023-11-22T14:11:05;3.25;;;1.65;;
42338;SDS011;27993;45.392;10.918;2023-11-22T14:13:36;2.45;;;1.25;;
42338;SDS011;27993;45.392;10.918;2023-11-22T14:16:07;2.92;;;1.90;;
42338;SDS011;27993;45.392;10.918;2023-11-22T14:18:38;3.33;;;1.65;;
42338;SDS011;27993;45.392;10.918;2023-11-22T14:21:09;2.17;;;1.30;;
42338;SDS011;27993;45.392;10.918;2023-11-22T14:23:41;3.28;;;1.50;;
42338;SDS011;27993;45.392;10.918;2023-11-22T14:26:12;2.92;;;1.87;;
42338;SDS011;27993;45.392;10.918;2023-11-22T14:28:43;3.72;;;1.70;;
42338;SDS011;27993;45.392;10.918;2023-11-22T14:31:14;4.00;;;1.95;;
42338;SDS011;27993;45.392;10.918;2023-11-22T14:33:45;3.15;;;1.77;;
42338;SDS011;27993;45.392;10.918;2023-11-22T14:36:16;1.77;;;1.30;;
42338;SDS011;27993;45.392;10.918;2023-11-22T14:38:47;3.30;;;1.50;;
42338;SDS011;27993;45.392;10.918;2023-11-22T14:41:24;2.83;;;1.27;;
42338;SDS011;27993;45.392;10.918;2023-11-22T14:43:55;6.43;;;1.77;;
42338;SDS011;27993;45.392;10.918;2023-11-22T14:46:26;3.20;;;1.67;;
42338;SDS011;27993;45.392;10.918;2023-11-22T14:48:57;8.00;;;2.28;;
42338;SDS011;27993;45.392;10.918;2023-11-22T14:51:28;2.30;;;1.45;;
42338;SDS011;27993;45.392;10.918;2023-11-22T14:53:59;2.25;;;1.37;;
42338;SDS011;27993;45.392;10.918;2023-11-22T14:56:30;2.60;;;1.65;;
42338;SDS011;27993;45.392;10.918;2023-11-22T14:59:01;3.42;;;1.73;;
42338;SDS011;27993;45.392;10.918;2023-11-22T15:01:33;5.35;;;1.87;;
42338;SDS011;27993;45.392;10.918;2023-11-22T15:04:04;2.67;;;1.75;;
42338;SDS011;27993;45.392;10.918;2023-11-22T15:06:35;5.37;;;2.50;;
42338;SDS011;27993;45.392;10.918;2023-11-22T15:09:06;11.95;;;3.12;;
42338;SDS011;27993;45.392;10.918;2023-11-22T15:11:39;5.07;;;3.62;;
42338;SDS011;27993;45.392;10.918;2023-11-22T15:14:11;7.93;;;4.62;;
42338;SDS011;27993;45.392;10.918;2023-11-22T15:16:42;5.72;;;2.95;;
42338;SDS011;27993;45.392;10.918;2023-11-22T15:19:13;9.00;;;3.47;;
42338;SDS011;27993;45.392;10.918;2023-11-22T15:21:44;5.95;;;2.95;;
42338;SDS011;27993;45.392;10.918;2023-11-22T15:24:15;4.25;;;2.25;;
42338;SDS011;27993;45.392;10.918;2023-11-22T15:26:46;2.92;;;1.75;;
42338;SDS011;27993;45.392;10.918;2023-11-22T15:29:17;8.65;;;2.30;;